sensor_id;sensor_type;location;lat;lon;timestamp;pressure;altitude;pressure_sealevel;temperature;humidity
25084;BME280;13075;55.682;37.564;2022-09-30T00:01:20;99382.72;;;11.80;100.00
25084;BME280;13075;55.682;37.564;2022-09-30T00:03:46;99371.88;;;11.69;100.00
25084;BME280;13075;55.682;37.564;2022-09-30T00:06:14;99380.50;;;11.71;100.00
25084;BME280;13075;55.682;37.564;2022-09-30T00:08:40;99390.63;;;11.69;100.00
25084;BME280;13075;55.682;37.564;2022-09-30T00:11:07;99386.66;;;11.65;100.00
25084;BME280;13075;55.682;37.564;2022-09-30T00:13:36;99384.41;;;11.62;100.00
25084;BME280;13075;55.682;37.564;2022-09-30T00:16:02;99385.47;;;11.54;100.00
25084;BME280;13075;55.682;37.564;2022-09-30T00:18:28;99398.47;;;11.51;100.00
25084;BME280;13075;55.682;37.564;2022-09-30T00:20:54;99394.75;;;11.52;100.00
25084;BME280;13075;55.682;37.564;2022-09-30T00:23:21;99397.84;;;11.49;100.00
25084;BME280;13075;55.682;37.564;2022-09-30T00:25:46;99402.56;;;11.47;100.00
25084;BME280;13075;55.682;37.564;2022-09-30T00:28:13;99398.28;;;11.46;100.00
25084;BME280;13075;55.682;37.564;2022-09-30T00:30:39;99406.31;;;11.46;100.00
25084;BME280;13075;55.682;37.564;2022-09-30T00:33:05;99407.94;;;11.47;100.00
25084;BME280;13075;55.682;37.564;2022-09-30T00:35:31;99403.41;;;11.47;100.00
25084;BME280;13075;55.682;37.564;2022-09-30T00:37:57;99406.53;;;11.38;100.00
25084;BME280;13075;55.682;37.564;2022-09-30T00:40:25;99414.34;;;11.39;100.00
25084;BME280;13075;55.682;37.564;2022-09-30T00:42:52;99412.69;;;11.45;100.00
25084;BME280;13075;55.682;37.564;2022-09-30T00:45:18;99406.50;;;11.44;100.00
25084;BME280;13075;55.682;37.564;2022-09-30T00:50:17;99412.28;;;11.48;100.00
25084;BME280;13075;55.682;37.564;2022-09-30T00:52:44;99411.44;;;11.47;100.00
25084;BME280;13075;55.682;37.564;2022-09-30T00:55:23;99415.59;;;11.43;100.00
25084;BME280;13075;55.682;37.564;2022-09-30T00:57:50;99421.34;;;11.40;100.00
25084;BME280;13075;55.682;37.564;2022-09-30T01:03:00;99421.16;;;11.28;100.00
25084;BME280;13075;55.682;37.564;2022-09-30T01:05:26;99408.59;;;11.29;100.00
25084;BME280;13075;55.682;37.564;2022-09-30T01:07:54;99415.41;;;11.25;100.00
25084;BME280;13075;55.682;37.564;2022-09-30T01:10:20;99415.19;;;11.26;100.00
25084;BME280;13075;55.682;37.564;2022-09-30T01:12:46;99411.47;;;11.27;100.00
25084;BME280;13075;55.682;37.564;2022-09-30T01:15:12;99416.00;;;11.27;100.00
25084;BME280;13075;55.682;37.564;2022-09-30T01:17:59;99413.53;;;11.25;100.00
25084;BME280;13075;55.682;37.564;2022-09-30T01:26:17;99416.41;;;11.17;100.00
25084;BME280;13075;55.682;37.564;2022-09-30T01:28:57;99413.13;;;11.22;100.00
25084;BME280;13075;55.682;37.564;2022-09-30T01:37:02;99420.97;;;11.04;100.00
25084;BME280;13075;55.682;37.564;2022-09-30T01:42:36;99416.66;;;11.09;100.00
25084;BME280;13075;55.682;37.564;2022-09-30T01:45:12;99420.75;;;11.12;100.00
25084;BME280;13075;55.682;37.564;2022-09-30T01:47:52;99429.81;;;11.11;100.00
25084;BME280;13075;55.682;37.564;2022-09-30T01:50:49;99429.19;;;11.15;100.00
25084;BME280;13075;55.682;37.564;2022-09-30T01:53:29;99429.59;;;11.12;100.00
25084;BME280;13075;55.682;37.564;2022-09-30T01:56:17;99421.16;;;11.02;100.00
25084;BME280;13075;55.682;37.564;2022-09-30T01:58:52;99419.72;;;11.00;100.00
25084;BME280;13075;55.682;37.564;2022-09-30T02:01:25;99413.94;;;10.90;100.00
25084;BME280;13075;55.682;37.564;2022-09-30T02:03:58;99418.47;;;10.83;100.00
25084;BME280;13075;55.682;37.564;2022-09-30T02:06:31;99416.63;;;10.90;100.00
25084;BME280;13075;55.682;37.564;2022-09-30T02:09:05;99418.25;;;10.84;100.00
25084;BME280;13075;55.682;37.564;2022-09-30T02:11:34;99422.16;;;10.82;100.00
25084;BME280;13075;55.682;37.564;2022-09-30T02:14:07;99421.56;;;10.86;100.00
25084;BME280;13075;55.682;37.564;2022-09-30T02:16:39;99421.38;;;10.81;100.00
25084;BME280;13075;55.682;37.564;2022-09-30T02:21:40;99415.59;;;10.78;100.00
25084;BME280;13075;55.682;37.564;2022-09-30T02:24:13;99425.47;;;10.71;100.00
25084;BME280;13075;55.682;37.564;2022-09-30T02:26:42;99432.06;;;10.68;100.00
25084;BME280;13075;55.682;37.564;2022-09-30T02:29:19;99416.59;;;10.77;100.00
25084;BME280;13075;55.682;37.564;2022-09-30T02:31:49;99425.06;;;10.80;100.00
25084;BME280;13075;55.682;37.564;2022-09-30T02:34:33;99423.63;;;10.78;100.00
25084;BME280;13075;55.682;37.564;2022-09-30T02:37:09;99425.91;;;10.81;100.00
25084;BME280;13075;55.682;37.564;2022-09-30T02:39:51;99418.91;;;10.86;100.00
25084;BME280;13075;55.682;37.564;2022-09-30T02:42:22;99413.13;;;10.83;100.00
25084;BME280;13075;55.682;37.564;2022-09-30T02:44:51;99415.59;;;10.91;100.00
25084;BME280;13075;55.682;37.564;2022-09-30T02:47:51;99418.69;;;10.94;100.00
25084;BME280;13075;55.682;37.564;2022-09-30T02:50:35;99418.47;;;10.89;100.00
25084;BME280;13075;55.682;37.564;2022-09-30T02:58:22;99425.28;;;10.98;100.00
25084;BME280;13075;55.682;37.564;2022-09-30T03:00:52;99433.31;;;10.98;100.00
25084;BME280;13075;55.682;37.564;2022-09-30T03:03:27;99428.59;;;10.94;100.00
25084;BME280;13075;55.682;37.564;2022-09-30T03:05:54;99432.06;;;10.94;100.00
25084;BME280;13075;55.682;37.564;2022-09-30T03:08:19;99425.50;;;10.97;100.00
25084;BME280;13075;55.682;37.564;2022-09-30T03:10:47;99424.84;;;10.95;100.00
25084;BME280;13075;55.682;37.564;2022-09-30T03:21:02;99435.34;;;10.90;100.00
25084;BME280;13075;55.682;37.564;2022-09-30T03:26:21;99431.47;;;10.86;100.00
25084;BME280;13075;55.682;37.564;2022-09-30T03:29:18;99437.81;;;10.85;100.00
25084;BME280;13075;55.682;37.564;2022-09-30T03:34:53;99435.16;;;10.91;100.00
25084;BME280;13075;55.682;37.564;2022-09-30T03:43:15;99452.03;;;10.79;100.00
25084;BME280;13075;55.682;37.564;2022-09-30T03:45:54;99446.47;;;10.87;100.00
25084;BME280;13075;55.682;37.564;2022-09-30T03:48:26;99438.47;;;10.93;100.00
25084;BME280;13075;55.682;37.564;2022-09-30T03:50:53;99441.13;;;10.93;100.00
25084;BME280;13075;55.682;37.564;2022-09-30T03:53:21;99440.72;;;10.96;100.00
25084;BME280;13075;55.682;37.564;2022-09-30T03:55:49;99436.81;;;10.99;100.00
25084;BME280;13075;55.682;37.564;2022-09-30T03:58:16;99432.91;;;10.88;100.00
25084;BME280;13075;55.682;37.564;2022-09-30T04:00:48;99430.44;;;10.93;100.00
25084;BME280;13075;55.682;37.564;2022-09-30T04:03:15;99423.22;;;11.00;100.00
25084;BME280;13075;55.682;37.564;2022-09-30T04:05:41;99425.91;;;11.00;100.00
25084;BME280;13075;55.682;37.564;2022-09-30T04:08:08;99423.41;;;11.05;100.00
25084;BME280;13075;55.682;37.564;2022-09-30T04:10:34;99429.81;;;11.04;100.00
25084;BME280;13075;55.682;37.564;2022-09-30T04:13:00;99432.69;;;11.16;100.00
25084;BME280;13075;55.682;37.564;2022-09-30T04:15:26;99446.69;;;11.18;100.00
25084;BME280;13075;55.682;37.564;2022-09-30T04:17:52;99438.25;;;11.27;100.00
25084;BME280;13075;55.682;37.564;2022-09-30T04:20:17;99444.03;;;11.24;100.00
25084;BME280;13075;55.682;37.564;2022-09-30T04:22:43;99442.16;;;11.32;100.00
25084;BME280;13075;55.682;37.564;2022-09-30T04:25:09;99447.28;;;11.46;100.00
25084;BME280;13075;55.682;37.564;2022-09-30T04:27:34;99441.94;;;11.40;100.00
25084;BME280;13075;55.682;37.564;2022-09-30T04:30:00;99435.16;;;11.50;100.00
25084;BME280;13075;55.682;37.564;2022-09-30T04:32:26;99429.19;;;11.48;100.00
25084;BME280;13075;55.682;37.564;2022-09-30T04:34:53;99427.09;;;11.57;100.00
25084;BME280;13075;55.682;37.564;2022-09-30T04:37:19;99422.56;;;11.51;100.00
25084;BME280;13075;55.682;37.564;2022-09-30T04:39:44;99432.28;;;11.45;100.00
25084;BME280;13075;55.682;37.564;2022-09-30T04:42:10;99428.97;;;11.50;100.00
25084;BME280;13075;55.682;37.564;2022-09-30T04:44:36;99426.69;;;11.53;100.00
25084;BME280;13075;55.682;37.564;2022-09-30T04:47:02;99423.56;;;11.63;100.00
25084;BME280;13075;55.682;37.564;2022-09-30T04:49:27;99421.50;;;11.65;100.00
25084;BME280;13075;55.682;37.564;2022-09-30T04:51:53;99431.19;;;11.66;100.00
25084;BME280;13075;55.682;37.564;2022-09-30T04:54:19;99432.63;;;11.62;100.00
25084;BME280;13075;55.682;37.564;2022-09-30T04:56:44;99428.72;;;11.64;100.00
25084;BME280;13075;55.682;37.564;2022-09-30T04:59:10;99442.34;;;11.76;100.00
25084;BME280;13075;55.682;37.564;2022-09-30T05:01:36;99434.50;;;11.68;100.00
25084;BME280;13075;55.682;37.564;2022-09-30T05:04:03;99441.91;;;11.72;100.00
25084;BME280;13075;55.682;37.564;2022-09-30T05:06:29;99451.63;;;11.73;100.00
25084;BME280;13075;55.682;37.564;2022-09-30T05:08:55;99438.81;;;11.62;100.00
25084;BME280;13075;55.682;37.564;2022-09-30T05:11:21;99433.47;;;11.62;100.00
25084;BME280;13075;55.682;37.564;2022-09-30T05:13:47;99427.91;;;11.64;100.00
25084;BME280;13075;55.682;37.564;2022-09-30T05:16:14;99436.56;;;11.59;100.00
25084;BME280;13075;55.682;37.564;2022-09-30T05:18:40;99436.38;;;11.54;100.00
25084;BME280;13075;55.682;37.564;2022-09-30T05:21:11;99435.34;;;11.42;100.00
25084;BME280;13075;55.682;37.564;2022-09-30T05:23:37;99430.38;;;11.59;100.00
25084;BME280;13075;55.682;37.564;2022-09-30T05:26:03;99433.06;;;11.59;100.00
25084;BME280;13075;55.682;37.564;2022-09-30T05:28:29;99429.13;;;11.74;100.00
25084;BME280;13075;55.682;37.564;2022-09-30T05:30:59;99435.13;;;11.70;100.00
25084;BME280;13075;55.682;37.564;2022-09-30T05:33:27;99439.84;;;11.74;100.00
25084;BME280;13075;55.682;37.564;2022-09-30T05:36:01;99443.97;;;11.83;100.00
25084;BME280;13075;55.682;37.564;2022-09-30T05:38:28;99451.97;;;11.97;100.00
25084;BME280;13075;55.682;37.564;2022-09-30T05:40:53;99446.97;;;12.07;100.00
25084;BME280;13075;55.682;37.564;2022-09-30T05:43:19;99448.84;;;12.13;100.00
25084;BME280;13075;55.682;37.564;2022-09-30T05:45:55;99445.66;;;12.29;100.00
25084;BME280;13075;55.682;37.564;2022-09-30T05:48:22;99440.03;;;12.43;100.00
25084;BME280;13075;55.682;37.564;2022-09-30T05:50:48;99436.69;;;12.48;100.00
25084;BME280;13075;55.682;37.564;2022-09-30T05:53:16;99427.84;;;12.41;100.00
25084;BME280;13075;55.682;37.564;2022-09-30T05:55:46;99441.88;;;12.43;100.00
25084;BME280;13075;55.682;37.564;2022-09-30T05:58:15;99436.25;;;12.51;100.00
25084;BME280;13075;55.682;37.564;2022-09-30T06:00:42;99434.13;;;12.60;100.00
25084;BME280;13075;55.682;37.564;2022-09-30T06:03:08;99432.16;;;12.48;100.00
25084;BME280;13075;55.682;37.564;2022-09-30T06:05:34;99431.16;;;12.43;100.00
25084;BME280;13075;55.682;37.564;2022-09-30T06:07:59;99433.19;;;12.47;100.00
25084;BME280;13075;55.682;37.564;2022-09-30T06:10:25;99433.59;;;12.44;100.00
25084;BME280;13075;55.682;37.564;2022-09-30T06:12:50;99434.75;;;12.62;100.00
25084;BME280;13075;55.682;37.564;2022-09-30T06:15:16;99428.56;;;12.61;100.00
25084;BME280;13075;55.682;37.564;2022-09-30T06:17:42;99428.59;;;12.86;100.00
25084;BME280;13075;55.682;37.564;2022-09-30T06:20:11;99417.91;;;13.10;100.00
25084;BME280;13075;55.682;37.564;2022-09-30T06:22:36;99418.13;;;13.34;100.00
25084;BME280;13075;55.682;37.564;2022-09-30T06:25:06;99420.97;;;13.39;100.00
25084;BME280;13075;55.682;37.564;2022-09-30T06:27:34;99432.41;;;13.52;100.00
25084;BME280;13075;55.682;37.564;2022-09-30T06:30:04;99426.41;;;13.75;100.00
25084;BME280;13075;55.682;37.564;2022-09-30T06:32:30;99420.19;;;13.74;100.00
25084;BME280;13075;55.682;37.564;2022-09-30T06:34:55;99418.91;;;13.59;100.00
25084;BME280;13075;55.682;37.564;2022-09-30T06:37:21;99406.31;;;13.96;100.00
25084;BME280;13075;55.682;37.564;2022-09-30T06:39:48;99410.31;;;14.05;100.00
25084;BME280;13075;55.682;37.564;2022-09-30T06:42:17;99411.38;;;14.22;100.00
25084;BME280;13075;55.682;37.564;2022-09-30T06:44:44;99410.84;;;14.13;100.00
25084;BME280;13075;55.682;37.564;2022-09-30T06:47:12;99407.91;;;14.15;100.00
25084;BME280;13075;55.682;37.564;2022-09-30T06:49:39;99407.09;;;14.32;100.00
25084;BME280;13075;55.682;37.564;2022-09-30T06:52:05;99417.69;;;14.46;100.00
25084;BME280;13075;55.682;37.564;2022-09-30T06:54:30;99411.84;;;14.78;100.00
25084;BME280;13075;55.682;37.564;2022-09-30T06:56:56;99411.28;;;14.88;100.00
25084;BME280;13075;55.682;37.564;2022-09-30T06:59:24;99407.34;;;15.25;100.00
25084;BME280;13075;55.682;37.564;2022-09-30T07:01:51;99415.00;;;15.51;100.00
25084;BME280;13075;55.682;37.564;2022-09-30T07:04:17;99406.31;;;15.49;100.00
25084;BME280;13075;55.682;37.564;2022-09-30T07:06:43;99402.88;;;15.77;100.00
25084;BME280;13075;55.682;37.564;2022-09-30T07:09:09;99412.88;;;15.65;100.00
25084;BME280;13075;55.682;37.564;2022-09-30T07:11:35;99408.97;;;15.96;100.00
25084;BME280;13075;55.682;37.564;2022-09-30T07:14:05;99410.84;;;15.95;100.00
25084;BME280;13075;55.682;37.564;2022-09-30T07:16:31;99416.63;;;15.76;100.00
25084;BME280;13075;55.682;37.564;2022-09-30T07:19:00;99408.13;;;15.95;100.00
25084;BME280;13075;55.682;37.564;2022-09-30T07:21:26;99416.63;;;15.64;100.00
25084;BME280;13075;55.682;37.564;2022-09-30T07:23:52;99417.66;;;15.86;100.00
25084;BME280;13075;55.682;37.564;2022-09-30T07:26:21;99413.75;;;16.05;100.00
25084;BME280;13075;55.682;37.564;2022-09-30T07:28:48;99418.94;;;15.95;100.00
25084;BME280;13075;55.682;37.564;2022-09-30T07:31:22;99419.44;;;15.92;100.00
25084;BME280;13075;55.682;37.564;2022-09-30T07:33:49;99422.66;;;16.06;100.00
25084;BME280;13075;55.682;37.564;2022-09-30T07:36:17;99419.31;;;16.27;100.00
25084;BME280;13075;55.682;37.564;2022-09-30T07:38:44;99406.78;;;16.21;100.00
25084;BME280;13075;55.682;37.564;2022-09-30T07:41:16;99416.13;;;16.02;100.00
25084;BME280;13075;55.682;37.564;2022-09-30T07:43:43;99408.63;;;15.92;100.00
25084;BME280;13075;55.682;37.564;2022-09-30T07:46:15;99407.97;;;15.62;100.00
25084;BME280;13075;55.682;37.564;2022-09-30T07:48:43;99408.13;;;15.95;100.00
25084;BME280;13075;55.682;37.564;2022-09-30T07:51:19;99412.84;;;16.00;100.00
25084;BME280;13075;55.682;37.564;2022-09-30T07:53:51;99408.19;;;16.23;100.00
25084;BME280;13075;55.682;37.564;2022-09-30T07:56:17;99417.28;;;16.46;100.00
25084;BME280;13075;55.682;37.564;2022-09-30T07:58:43;99427.53;;;16.32;100.00
25084;BME280;13075;55.682;37.564;2022-09-30T08:01:10;99415.47;;;16.23;100.00
25084;BME280;13075;55.682;37.564;2022-09-30T08:03:37;99432.00;;;16.27;100.00
25084;BME280;13075;55.682;37.564;2022-09-30T08:06:06;99431.16;;;16.38;100.00
25084;BME280;13075;55.682;37.564;2022-09-30T08:08:32;99431.09;;;16.49;100.00
25084;BME280;13075;55.682;37.564;2022-09-30T08:10:59;99432.19;;;16.37;100.00
25084;BME280;13075;55.682;37.564;2022-09-30T08:13:25;99435.94;;;16.07;100.00
25084;BME280;13075;55.682;37.564;2022-09-30T08:15:50;99429.94;;;16.05;100.00
25084;BME280;13075;55.682;37.564;2022-09-30T08:18:16;99420.94;;;16.40;100.00
25084;BME280;13075;55.682;37.564;2022-09-30T08:20:41;99418.59;;;16.71;100.00
25084;BME280;13075;55.682;37.564;2022-09-30T08:23:07;99410.22;;;17.18;100.00
25084;BME280;13075;55.682;37.564;2022-09-30T08:25:33;99406.09;;;16.82;100.00
25084;BME280;13075;55.682;37.564;2022-09-30T08:27:58;99411.28;;;17.00;100.00
25084;BME280;13075;55.682;37.564;2022-09-30T08:30:24;99411.84;;;17.02;100.00
25084;BME280;13075;55.682;37.564;2022-09-30T08:32:49;99395.78;;;17.29;100.00
25084;BME280;13075;55.682;37.564;2022-09-30T08:35:15;99397.19;;;17.15;100.00
25084;BME280;13075;55.682;37.564;2022-09-30T08:37:41;99402.75;;;16.92;100.00
25084;BME280;13075;55.682;37.564;2022-09-30T08:40:23;99408.97;;;16.92;100.00
25084;BME280;13075;55.682;37.564;2022-09-30T08:45:46;99404.53;;;16.69;100.00
25084;BME280;13075;55.682;37.564;2022-09-30T08:51:14;99410.59;;;16.37;100.00
25084;BME280;13075;55.682;37.564;2022-09-30T08:53:45;99411.31;;;16.44;100.00
25084;BME280;13075;55.682;37.564;2022-09-30T08:56:19;99404.50;;;16.41;100.00
25084;BME280;13075;55.682;37.564;2022-09-30T08:58:47;99408.56;;;16.55;100.00
25084;BME280;13075;55.682;37.564;2022-09-30T09:01:43;99391.59;;;16.71;100.00
25084;BME280;13075;55.682;37.564;2022-09-30T09:04:11;99397.25;;;17.20;100.00
25084;BME280;13075;55.682;37.564;2022-09-30T09:06:55;99386.44;;;17.36;100.00
25084;BME280;13075;55.682;37.564;2022-09-30T09:09:50;99390.69;;;17.32;100.00
25084;BME280;13075;55.682;37.564;2022-09-30T09:20:39;99375.50;;;17.48;100.00
25084;BME280;13075;55.682;37.564;2022-09-30T09:23:09;99377.66;;;17.29;100.00
25084;BME280;13075;55.682;37.564;2022-09-30T09:25:36;99389.78;;;17.27;100.00
25084;BME280;13075;55.682;37.564;2022-09-30T09:28:15;99392.19;;;17.07;100.00
25084;BME280;13075;55.682;37.564;2022-09-30T09:30:51;99393.09;;;17.12;100.00
25084;BME280;13075;55.682;37.564;2022-09-30T09:33:22;99399.31;;;17.13;100.00
25084;BME280;13075;55.682;37.564;2022-09-30T09:41:28;99408.09;;;17.03;100.00
25084;BME280;13075;55.682;37.564;2022-09-30T09:46:44;99404.56;;;17.03;100.00
25084;BME280;13075;55.682;37.564;2022-09-30T09:52:14;99408.56;;;17.00;100.00
25084;BME280;13075;55.682;37.564;2022-09-30T09:54:50;99409.78;;;17.09;100.00
25084;BME280;13075;55.682;37.564;2022-09-30T09:57:20;99403.00;;;17.23;100.00
25084;BME280;13075;55.682;37.564;2022-09-30T10:00:09;99406.91;;;17.49;100.00
25084;BME280;13075;55.682;37.564;2022-09-30T10:03:18;99413.16;;;17.50;100.00
25084;BME280;13075;55.682;37.564;2022-09-30T10:06:14;99415.94;;;17.38;100.00
25084;BME280;13075;55.682;37.564;2022-09-30T10:09:00;99400.19;;;17.35;100.00
25084;BME280;13075;55.682;37.564;2022-09-30T10:11:26;99399.78;;;17.43;100.00
25084;BME280;13075;55.682;37.564;2022-09-30T10:13:56;99394.16;;;17.83;100.00
25084;BME280;13075;55.682;37.564;2022-09-30T10:18:52;99400.91;;;18.24;100.00
25084;BME280;13075;55.682;37.564;2022-09-30T10:21:24;99389.19;;;18.18;100.00
25084;BME280;13075;55.682;37.564;2022-09-30T10:23:51;99395.63;;;17.90;100.00
25084;BME280;13075;55.682;37.564;2022-09-30T10:26:21;99386.97;;;17.72;100.00
25084;BME280;13075;55.682;37.564;2022-09-30T10:29:01;99397.88;;;17.77;100.00
25084;BME280;13075;55.682;37.564;2022-09-30T10:31:35;99390.19;;;17.52;100.00
25084;BME280;13075;55.682;37.564;2022-09-30T10:34:15;99397.75;;;17.33;100.00
25084;BME280;13075;55.682;37.564;2022-09-30T10:36:44;99380.44;;;17.34;100.00
25084;BME280;13075;55.682;37.564;2022-09-30T10:39:30;99398.81;;;17.32;100.00
25084;BME280;13075;55.682;37.564;2022-09-30T10:44:44;99417.75;;;17.16;100.00
25084;BME280;13075;55.682;37.564;2022-09-30T10:47:17;99401.53;;;17.16;100.00
25084;BME280;13075;55.682;37.564;2022-09-30T10:49:50;99389.88;;;17.32;100.00
25084;BME280;13075;55.682;37.564;2022-09-30T10:52:31;99399.28;;;17.29;100.00
25084;BME280;13075;55.682;37.564;2022-09-30T10:54:59;99401.91;;;17.24;100.00
25084;BME280;13075;55.682;37.564;2022-09-30T11:00:12;99396.66;;;17.51;100.00
25084;BME280;13075;55.682;37.564;2022-09-30T11:02:43;99388.88;;;17.93;100.00
25084;BME280;13075;55.682;37.564;2022-09-30T11:10:46;99389.81;;;18.25;100.00
25084;BME280;13075;55.682;37.564;2022-09-30T11:21:50;99388.88;;;17.93;100.00
25084;BME280;13075;55.682;37.564;2022-09-30T11:24:39;99384.59;;;17.75;100.00
25084;BME280;13075;55.682;37.564;2022-09-30T11:41:31;99382.13;;;18.17;100.00
25084;BME280;13075;55.682;37.564;2022-09-30T11:44:34;99384.66;;;18.02;100.00
25084;BME280;13075;55.682;37.564;2022-09-30T12:00:17;99404.66;;;18.23;100.00
25084;BME280;13075;55.682;37.564;2022-09-30T12:02:47;99408.84;;;18.09;100.00
25084;BME280;13075;55.682;37.564;2022-09-30T12:07:56;99412.75;;;17.96;100.00
25084;BME280;13075;55.682;37.564;2022-09-30T12:10:32;99417.63;;;17.99;100.00
25084;BME280;13075;55.682;37.564;2022-09-30T12:13:05;99409.84;;;18.02;100.00
25084;BME280;13075;55.682;37.564;2022-09-30T12:15:35;99413.75;;;18.12;100.00
25084;BME280;13075;55.682;37.564;2022-09-30T12:18:46;99405.63;;;18.12;100.00
25084;BME280;13075;55.682;37.564;2022-09-30T12:21:08;99404.69;;;18.01;100.00
25084;BME280;13075;55.682;37.564;2022-09-30T12:23:37;99400.47;;;18.10;100.00
25084;BME280;13075;55.682;37.564;2022-09-30T12:26:06;99413.59;;;18.01;100.00
25084;BME280;13075;55.682;37.564;2022-09-30T12:28:44;99411.31;;;17.88;100.00
25084;BME280;13075;55.682;37.564;2022-09-30T12:40:33;99431.50;;;18.02;100.00
25084;BME280;13075;55.682;37.564;2022-09-30T12:45:44;99421.72;;;18.01;100.00
25084;BME280;13075;55.682;37.564;2022-09-30T12:48:17;99425.91;;;18.09;100.00
25084;BME280;13075;55.682;37.564;2022-09-30T12:50:53;99425.72;;;18.16;100.00
25084;BME280;13075;55.682;37.564;2022-09-30T12:53:36;99424.31;;;18.13;100.00
25084;BME280;13075;55.682;37.564;2022-09-30T12:56:06;99422.44;;;18.14;100.00
25084;BME280;13075;55.682;37.564;2022-09-30T12:58:41;99410.47;;;18.10;100.00
25084;BME280;13075;55.682;37.564;2022-09-30T13:01:15;99425.75;;;17.99;100.00
25084;BME280;13075;55.682;37.564;2022-09-30T13:03:47;99424.69;;;18.00;100.00
25084;BME280;13075;55.682;37.564;2022-09-30T13:06:15;99415.81;;;18.04;100.00
25084;BME280;13075;55.682;37.564;2022-09-30T13:09:05;99423.66;;;18.01;100.00
25084;BME280;13075;55.682;37.564;2022-09-30T13:11:37;99419.72;;;17.92;100.00
25084;BME280;13075;55.682;37.564;2022-09-30T13:17:23;99430.97;;;17.84;100.00
25084;BME280;13075;55.682;37.564;2022-09-30T13:19:52;99432.28;;;17.81;100.00
25084;BME280;13075;55.682;37.564;2022-09-30T13:27:34;99444.94;;;17.42;100.00
25084;BME280;13075;55.682;37.564;2022-09-30T13:32:48;99450.66;;;17.29;100.00
25084;BME280;13075;55.682;37.564;2022-09-30T13:38:20;99450.34;;;17.26;100.00
25084;BME280;13075;55.682;37.564;2022-09-30T13:43:20;99459.53;;;17.25;100.00
25084;BME280;13075;55.682;37.564;2022-09-30T13:45:48;99472.72;;;17.21;100.00
25084;BME280;13075;55.682;37.564;2022-09-30T13:48:46;99473.44;;;17.17;100.00
25084;BME280;13075;55.682;37.564;2022-09-30T13:51:15;99476.06;;;17.12;100.00
25084;BME280;13075;55.682;37.564;2022-09-30T13:53:54;99468.19;;;17.10;100.00
25084;BME280;13075;55.682;37.564;2022-09-30T13:56:32;99469.13;;;17.16;100.00
25084;BME280;13075;55.682;37.564;2022-09-30T14:02:30;99474.00;;;17.02;100.00
25084;BME280;13075;55.682;37.564;2022-09-30T14:05:15;99472.59;;;17.00;100.00
25084;BME280;13075;55.682;37.564;2022-09-30T14:09:00;99476.97;;;17.01;100.00
25084;BME280;13075;55.682;37.564;2022-09-30T14:19:36;99485.94;;;16.90;100.00
25084;BME280;13075;55.682;37.564;2022-09-30T14:22:08;99488.88;;;16.88;100.00
25084;BME280;13075;55.682;37.564;2022-09-30T14:24:38;99493.13;;;16.84;100.00
25084;BME280;13075;55.682;37.564;2022-09-30T14:32:26;99489.06;;;16.70;100.00
25084;BME280;13075;55.682;37.564;2022-09-30T14:34:53;99496.78;;;16.78;100.00
25084;BME280;13075;55.682;37.564;2022-09-30T14:37:28;99499.97;;;16.75;100.00
25084;BME280;13075;55.682;37.564;2022-09-30T14:39:55;99499.88;;;16.70;100.00
25084;BME280;13075;55.682;37.564;2022-09-30T14:44:55;99506.81;;;16.66;100.00
25084;BME280;13075;55.682;37.564;2022-09-30T14:47:31;99501.91;;;16.63;100.00
25084;BME280;13075;55.682;37.564;2022-09-30T14:49:58;99503.56;;;16.64;100.00
25084;BME280;13075;55.682;37.564;2022-09-30T14:52:37;99504.84;;;16.61;100.00
25084;BME280;13075;55.682;37.564;2022-09-30T14:55:18;99512.38;;;16.59;100.00
25084;BME280;13075;55.682;37.564;2022-09-30T14:57:46;99507.09;;;16.53;100.00
25084;BME280;13075;55.682;37.564;2022-09-30T15:00:29;99513.31;;;16.53;100.00
25084;BME280;13075;55.682;37.564;2022-09-30T15:02:56;99507.19;;;16.58;100.00
25084;BME280;13075;55.682;37.564;2022-09-30T15:05:23;99508.50;;;16.55;100.00
25084;BME280;13075;55.682;37.564;2022-09-30T15:07:50;99514.25;;;16.47;100.00
25084;BME280;13075;55.682;37.564;2022-09-30T15:10:20;99518.59;;;16.48;100.00
25084;BME280;13075;55.682;37.564;2022-09-30T15:12:51;99518.34;;;16.50;100.00
25084;BME280;13075;55.682;37.564;2022-09-30T15:15:47;99522.13;;;16.49;100.00
25084;BME280;13075;55.682;37.564;2022-09-30T15:18:32;99528.56;;;16.48;100.00
25084;BME280;13075;55.682;37.564;2022-09-30T15:21:12;99524.56;;;16.50;100.00
25084;BME280;13075;55.682;37.564;2022-09-30T15:23:44;99530.56;;;16.52;100.00
25084;BME280;13075;55.682;37.564;2022-09-30T15:26:11;99530.22;;;16.49;100.00
25084;BME280;13075;55.682;37.564;2022-09-30T15:28:38;99529.03;;;16.45;100.00
25084;BME280;13075;55.682;37.564;2022-09-30T15:31:05;99528.34;;;16.38;100.00
25084;BME280;13075;55.682;37.564;2022-09-30T15:33:32;99532.56;;;16.34;100.00
25084;BME280;13075;55.682;37.564;2022-09-30T15:36:07;99544.81;;;16.36;100.00
25084;BME280;13075;55.682;37.564;2022-09-30T15:38:38;99541.50;;;16.34;100.00
25084;BME280;13075;55.682;37.564;2022-09-30T15:41:06;99547.88;;;16.28;100.00
25084;BME280;13075;55.682;37.564;2022-09-30T15:43:39;99561.94;;;16.30;100.00
25084;BME280;13075;55.682;37.564;2022-09-30T15:48:41;99566.41;;;16.25;100.00
25084;BME280;13075;55.682;37.564;2022-09-30T15:51:25;99565.81;;;16.23;100.00
25084;BME280;13075;55.682;37.564;2022-09-30T15:53:52;99565.25;;;16.20;100.00
25084;BME280;13075;55.682;37.564;2022-09-30T15:56:32;99572.28;;;16.21;100.00